createdAt,value
2018-06-29T00:00:36.290Z,915.04
2018-06-29T00:01:36.491Z,915.02
2018-06-29T00:02:36.253Z,915.06
2018-06-29T00:03:36.174Z,915.06
2018-06-29T00:04:36.157Z,915.07
2018-06-29T00:05:36.127Z,915.09
2018-06-29T00:06:36.153Z,915.10
2018-06-29T00:07:36.049Z,915.09
2018-06-29T00:08:36.013Z,915.07
2018-06-29T00:09:36.097Z,915.06
2018-06-29T00:10:35.967Z,915.05
2018-06-29T00:11:35.928Z,915.07
2018-06-29T00:12:35.901Z,915.03
2018-06-29T00:13:35.915Z,915.07
2018-06-29T00:14:35.832Z,915.03
2018-06-29T00:15:35.822Z,915.07
2018-06-29T00:16:35.802Z,915.08
2018-06-29T00:17:35.896Z,915.07
2018-06-29T00:18:35.717Z,915.04
2018-06-29T00:19:35.680Z,915.06
2018-06-29T00:20:35.646Z,915.06
2018-06-29T00:21:35.628Z,915.01
2018-06-29T00:22:35.597Z,915.04
2018-06-29T00:23:35.807Z,915.08
2018-06-29T00:24:35.520Z,915.08
2018-06-29T00:25:35.491Z,915.09
2018-06-29T00:26:35.459Z,915.06
2018-06-29T00:27:35.429Z,915.07
2018-06-29T00:28:35.403Z,915.05
2018-06-29T00:29:35.417Z,915.03
2018-06-29T00:30:35.352Z,915.05
2018-06-29T00:31:35.303Z,915.02
2018-06-29T00:32:35.284Z,915.01
2018-06-29T00:33:35.262Z,915.03
2018-06-29T00:34:35.429Z,915.04
2018-06-29T00:35:35.214Z,915.02
2018-06-29T00:36:35.148Z,915.02
2018-06-29T00:37:35.120Z,915.04
2018-06-29T00:38:35.096Z,915.01
2018-06-29T00:39:35.053Z,915.00
2018-06-29T00:40:35.025Z,915.04
2018-06-29T00:41:35.004Z,915.02
2018-06-29T00:42:34.992Z,915.04
2018-06-29T00:43:35.112Z,915.05
2018-06-29T00:44:35.052Z,915.03
2018-06-29T00:45:34.873Z,915.02
2018-06-29T00:46:34.844Z,915.02
2018-06-29T00:47:34.805Z,915.04
2018-06-29T00:48:34.790Z,915.04
2018-06-29T00:49:34.750Z,915.03
2018-06-29T00:50:35.026Z,915.03
2018-06-29T00:51:34.682Z,915.01
2018-06-29T00:52:34.648Z,915.05
2018-06-29T00:53:34.616Z,915.06
2018-06-29T00:54:34.590Z,915.06
2018-06-29T00:55:34.557Z,915.07
2018-06-29T00:56:34.674Z,915.07
2018-06-29T00:57:34.487Z,915.04
2018-06-29T00:58:34.470Z,915.06
2018-06-29T00:59:34.475Z,915.06
2018-06-29T01:00:34.402Z,915.11
2018-06-29T01:01:34.366Z,915.13
2018-06-29T01:02:34.384Z,915.12
2018-06-29T01:03:34.320Z,915.11
2018-06-29T01:04:34.268Z,915.12
2018-06-29T01:05:34.257Z,915.12
2018-06-29T01:06:34.216Z,915.10
2018-06-29T01:07:34.173Z,915.07
2018-06-29T01:08:34.153Z,915.08
2018-06-29T01:09:34.135Z,915.06
2018-06-29T01:10:34.096Z,915.10
2018-06-29T01:11:34.080Z,915.08
2018-06-29T01:12:34.421Z,915.04
2018-06-29T01:13:33.991Z,915.10
2018-06-29T01:14:33.967Z,915.11
2018-06-29T01:15:33.925Z,915.13
2018-06-29T01:16:33.919Z,915.14
2018-06-29T01:17:33.873Z,915.09
2018-06-29T01:18:34.131Z,915.09
2018-06-29T01:19:33.905Z,915.13
2018-06-29T01:20:33.769Z,915.11
2018-06-29T01:21:33.738Z,915.08
2018-06-29T01:22:33.702Z,915.12
2018-06-29T01:23:33.716Z,915.11
2018-06-29T01:24:34.040Z,915.11
2018-06-29T01:25:33.638Z,915.14
2018-06-29T01:26:33.599Z,915.13
2018-06-29T01:27:33.549Z,915.10
2018-06-29T01:28:33.577Z,915.13
2018-06-29T01:29:33.491Z,915.14
2018-06-29T01:30:33.708Z,915.16
2018-06-29T01:31:33.418Z,915.14
2018-06-29T01:32:33.388Z,915.14
2018-06-29T01:33:33.363Z,915.08
2018-06-29T01:34:33.340Z,915.04
2018-06-29T01:35:33.695Z,915.03
2018-06-29T01:36:33.273Z,915.06
2018-06-29T01:37:33.234Z,915.05
2018-06-29T01:38:33.198Z,915.05
2018-06-29T01:39:33.177Z,915.03
2018-06-29T01:40:33.286Z,915.03
2018-06-29T01:41:33.181Z,915.02
2018-06-29T01:42:33.072Z,915.02
2018-06-29T01:43:33.044Z,915.05
2018-06-29T01:44:33.018Z,915.02
2018-06-29T01:45:33.791Z,915.00
2018-06-29T01:46:32.946Z,915.00
2018-06-29T01:47:32.914Z,915.04
2018-06-29T01:48:32.896Z,915.02
2018-06-29T01:49:32.853Z,915.04
2018-06-29T01:50:32.824Z,915.04
2018-06-29T01:51:33.042Z,915.10
2018-06-29T01:52:32.790Z,915.10
2018-06-29T01:53:32.728Z,915.06
2018-06-29T01:54:32.695Z,915.04
2018-06-29T01:55:32.665Z,915.03
2018-06-29T01:56:32.636Z,915.05
2018-06-29T01:57:32.763Z,915.01
2018-06-29T01:58:32.573Z,915.01
2018-06-29T01:59:32.556Z,915.00
2018-06-29T02:00:32.517Z,915.03
2018-06-29T02:01:32.481Z,914.99
2018-06-29T02:02:32.447Z,915.03
2018-06-29T02:03:32.415Z,915.03
2018-06-29T02:04:32.383Z,915.01
2018-06-29T02:05:32.354Z,915.03
2018-06-29T02:06:32.317Z,915.04
2018-06-29T02:07:32.302Z,915.01
2018-06-29T02:08:32.251Z,915.04
2018-06-29T02:09:32.233Z,915.01
2018-06-29T02:10:32.195Z,915.01
2018-06-29T02:11:32.165Z,915.05
2018-06-29T02:12:32.132Z,914.98
2018-06-29T02:13:32.096Z,915.01
2018-06-29T02:14:32.072Z,915.02
2018-06-29T02:15:32.046Z,915.01
2018-06-29T02:16:31.998Z,915.04
2018-06-29T02:17:31.974Z,914.99
2018-06-29T02:18:31.947Z,915.03
2018-06-29T02:19:31.902Z,915.03
2018-06-29T02:20:31.872Z,915.01
2018-06-29T02:21:31.859Z,914.99
2018-06-29T02:22:31.814Z,915.01
2018-06-29T02:23:32.034Z,915.05
2018-06-29T02:24:31.755Z,915.05
2018-06-29T02:25:31.720Z,915.04
2018-06-29T02:26:31.685Z,915.05
2018-06-29T02:27:31.679Z,915.05
2018-06-29T02:28:31.618Z,915.05
2018-06-29T02:29:31.837Z,915.06
2018-06-29T02:30:31.583Z,915.03
2018-06-29T02:31:31.601Z,915.04
2018-06-29T02:32:31.505Z,915.08
2018-06-29T02:33:31.468Z,915.03
2018-06-29T02:34:31.473Z,915.01
2018-06-29T02:35:31.405Z,914.99
2018-06-29T02:36:31.363Z,914.98
2018-06-29T02:37:31.331Z,914.99
2018-06-29T02:38:31.317Z,915.02
2018-06-29T02:39:31.269Z,915.01
2018-06-29T02:40:31.240Z,915.05
2018-06-29T02:41:31.213Z,915.11
2018-06-29T02:42:31.175Z,915.01
2018-06-29T02:43:31.149Z,915.07
2018-06-29T02:44:31.107Z,915.05
2018-06-29T02:45:31.075Z,915.04
2018-06-29T02:46:31.045Z,915.07
2018-06-29T02:47:31.032Z,915.04
2018-06-29T02:48:30.984Z,915.05
2018-06-29T02:49:30.955Z,915.06
2018-06-29T02:50:30.925Z,915.05
2018-06-29T02:51:30.889Z,915.08
2018-06-29T02:52:30.860Z,915.04
2018-06-29T02:53:30.824Z,915.05
2018-06-29T02:54:30.791Z,915.04
2018-06-29T02:55:31.061Z,915.04
2018-06-29T02:56:30.731Z,915.05
2018-06-29T02:57:30.691Z,915.05
2018-06-29T02:58:30.665Z,915.08
2018-06-29T02:59:30.640Z,915.08
2018-06-29T03:00:30.601Z,915.07
2018-06-29T03:01:30.813Z,915.04
2018-06-29T03:02:30.542Z,915.11
2018-06-29T03:03:30.513Z,915.07
2018-06-29T03:04:30.479Z,915.05
2018-06-29T03:05:30.443Z,915.06
2018-06-29T03:06:30.413Z,915.03
2018-06-29T03:07:30.374Z,915.07
2018-06-29T03:08:30.343Z,915.04
2018-06-29T03:09:30.309Z,915.06
2018-06-29T03:10:30.280Z,915.05
2018-06-29T03:11:30.259Z,915.05
2018-06-29T03:12:30.215Z,915.05
2018-06-29T03:13:30.188Z,915.03
2018-06-29T03:14:30.155Z,915.06
2018-06-29T03:15:30.118Z,915.09
2018-06-29T03:16:30.083Z,915.07
2018-06-29T03:17:30.062Z,915.06
2018-06-29T03:18:30.052Z,915.08
2018-06-29T03:19:30.007Z,915.07
2018-06-29T03:20:29.955Z,915.07
2018-06-29T03:21:29.924Z,915.08
2018-06-29T03:22:30.060Z,915.10
2018-06-29T03:23:29.861Z,915.09
2018-06-29T03:24:29.830Z,915.09
2018-06-29T03:25:29.797Z,915.10
2018-06-29T03:26:29.777Z,915.09
2018-06-29T03:27:29.736Z,915.10
2018-06-29T03:28:29.947Z,915.12
2018-06-29T03:29:29.672Z,915.09
2018-06-29T03:30:29.638Z,915.09
2018-06-29T03:31:29.607Z,915.08
2018-06-29T03:32:29.602Z,915.10
2018-06-29T03:33:29.543Z,915.08
2018-06-29T03:34:29.763Z,915.12
2018-06-29T03:35:29.475Z,915.10
2018-06-29T03:36:29.440Z,915.09
2018-06-29T03:37:29.411Z,915.10
2018-06-29T03:38:29.436Z,915.08
2018-06-29T03:39:29.344Z,915.09
2018-06-29T03:40:29.448Z,915.11
2018-06-29T03:41:29.282Z,915.08
2018-06-29T03:42:29.246Z,915.08
2018-06-29T03:43:29.219Z,915.05
2018-06-29T03:44:29.191Z,915.05
2018-06-29T03:45:29.189Z,915.04
2018-06-29T03:46:29.123Z,915.06
2018-06-29T03:47:29.085Z,915.01
2018-06-29T03:48:29.052Z,915.02
2018-06-29T03:49:29.022Z,915.00
2018-06-29T03:50:28.995Z,914.97
2018-06-29T03:51:28.962Z,914.98
2018-06-29T03:52:28.944Z,914.98
2018-06-29T03:53:28.898Z,914.96
2018-06-29T03:54:28.863Z,914.98
2018-06-29T03:55:29.188Z,914.99
2018-06-29T03:56:28.794Z,914.99
2018-06-29T03:57:28.772Z,914.98
2018-06-29T03:58:28.732Z,914.93
2018-06-29T03:59:28.706Z,914.95
2018-06-29T04:00:28.670Z,914.89
2018-06-29T04:01:28.789Z,914.90
2018-06-29T04:02:28.602Z,914.88
2018-06-29T04:03:28.571Z,914.85
2018-06-29T04:04:28.536Z,914.87
2018-06-29T04:05:28.503Z,914.85
2018-06-29T04:06:28.485Z,914.87
2018-06-29T04:07:28.460Z,914.84
2018-06-29T04:08:28.407Z,914.82
2018-06-29T04:09:28.374Z,914.80
2018-06-29T04:10:28.344Z,914.84
2018-06-29T04:11:28.320Z,914.85
2018-06-29T04:12:28.285Z,914.83
2018-06-29T04:13:28.291Z,914.83
2018-06-29T04:14:28.220Z,914.83
2018-06-29T04:15:28.213Z,914.82
2018-06-29T04:16:28.148Z,914.79
2018-06-29T04:17:28.328Z,914.80
2018-06-29T04:18:28.086Z,914.79
2018-06-29T04:19:28.049Z,914.80
2018-06-29T04:20:28.019Z,914.81
2018-06-29T04:21:27.990Z,914.81
2018-06-29T04:22:27.954Z,914.79
2018-06-29T04:23:27.921Z,914.76
2018-06-29T04:24:27.892Z,914.79
2018-06-29T04:25:27.860Z,914.76
2018-06-29T04:26:27.859Z,914.78
2018-06-29T04:27:27.806Z,914.75
2018-06-29T04:28:27.756Z,914.77
2018-06-29T04:29:27.978Z,914.79
2018-06-29T04:30:27.691Z,914.72
2018-06-29T04:31:27.660Z,914.78
2018-06-29T04:32:27.626Z,914.75
2018-06-29T04:33:27.595Z,914.71
2018-06-29T04:34:27.569Z,914.69
2018-06-29T04:35:27.806Z,914.72
2018-06-29T04:36:27.495Z,914.69
2018-06-29T04:37:27.489Z,914.72
2018-06-29T04:38:27.441Z,914.71
2018-06-29T04:39:27.397Z,914.66
2018-06-29T04:40:27.372Z,914.67
2018-06-29T04:41:27.334Z,914.67
2018-06-29T04:42:27.306Z,914.71
2018-06-29T04:43:27.269Z,914.69
2018-06-29T04:44:27.238Z,914.69
2018-06-29T04:45:27.204Z,914.69
2018-06-29T04:46:27.181Z,914.67
2018-06-29T04:47:27.144Z,914.70
2018-06-29T04:48:27.106Z,914.68
2018-06-29T04:49:27.076Z,914.67
2018-06-29T04:50:27.039Z,914.66
2018-06-29T04:51:27.028Z,914.65
2018-06-29T04:52:26.975Z,914.64
2018-06-29T04:53:26.942Z,914.66
2018-06-29T04:54:26.912Z,914.65
2018-06-29T04:55:26.911Z,914.71
2018-06-29T04:56:27.147Z,914.67
2018-06-29T04:57:26.821Z,914.68
2018-06-29T04:58:26.781Z,914.65
2018-06-29T04:59:26.746Z,914.66
2018-06-29T05:00:26.715Z,914.63
2018-06-29T05:01:26.708Z,914.66
2018-06-29T05:02:26.848Z,914.67
2018-06-29T05:03:26.616Z,914.68
2018-06-29T05:04:26.631Z,914.64
2018-06-29T05:05:26.550Z,914.65
2018-06-29T05:06:26.540Z,914.67
2018-06-29T05:07:26.499Z,914.68
2018-06-29T05:08:26.450Z,914.67
2018-06-29T05:09:26.422Z,914.66
2018-06-29T05:10:26.392Z,914.64
2018-06-29T05:11:26.355Z,914.65
2018-06-29T05:12:26.325Z,914.64
2018-06-29T05:13:26.512Z,914.69
2018-06-29T05:14:26.256Z,914.70
2018-06-29T05:15:26.260Z,914.72
2018-06-29T05:16:26.197Z,914.68
2018-06-29T05:17:26.158Z,914.70
2018-06-29T05:18:26.141Z,914.64
2018-06-29T05:19:26.101Z,914.67
2018-06-29T05:20:26.061Z,914.65
2018-06-29T05:21:26.030Z,914.68
2018-06-29T05:22:26.004Z,914.66
2018-06-29T05:23:25.974Z,914.67
2018-06-29T05:24:26.092Z,914.65
2018-06-29T05:25:25.900Z,914.67
2018-06-29T05:26:25.865Z,914.69
2018-06-29T05:27:25.830Z,914.67
2018-06-29T05:28:25.795Z,914.71
2018-06-29T05:29:25.767Z,914.73
2018-06-29T05:30:25.838Z,914.71
2018-06-29T05:31:25.702Z,914.74
2018-06-29T05:32:25.667Z,914.72
2018-06-29T05:33:25.637Z,914.74
2018-06-29T05:34:25.602Z,914.74
2018-06-29T05:35:25.568Z,914.73
2018-06-29T05:36:25.538Z,914.68
2018-06-29T05:37:25.504Z,914.69
2018-06-29T05:38:25.474Z,914.71
2018-06-29T05:39:25.434Z,914.69
2018-06-29T05:40:25.404Z,914.74
2018-06-29T05:41:25.788Z,914.68
2018-06-29T05:42:25.339Z,914.68
2018-06-29T05:43:25.312Z,914.65
2018-06-29T05:44:25.269Z,914.67
2018-06-29T05:45:25.237Z,914.66
2018-06-29T05:46:25.263Z,914.66
2018-06-29T05:47:25.173Z,914.69
2018-06-29T05:48:25.144Z,914.66
2018-06-29T05:49:25.109Z,914.71
2018-06-29T05:50:25.075Z,914.70
2018-06-29T05:51:25.044Z,914.61
2018-06-29T05:52:25.013Z,914.67
2018-06-29T05:53:24.973Z,914.65
2018-06-29T05:54:24.943Z,914.66
2018-06-29T05:55:24.911Z,914.62
2018-06-29T05:56:24.879Z,914.63
2018-06-29T05:57:25.061Z,914.61
2018-06-29T05:58:24.816Z,914.62
2018-06-29T05:59:24.778Z,914.63
2018-06-29T06:00:24.777Z,914.60
2018-06-29T06:01:24.714Z,914.64
2018-06-29T06:02:24.675Z,914.63
2018-06-29T06:03:24.642Z,914.64
2018-06-29T06:04:24.614Z,914.66
2018-06-29T06:05:24.595Z,914.66
2018-06-29T06:06:24.569Z,914.66
2018-06-29T06:07:24.518Z,914.65
2018-06-29T06:08:24.483Z,914.64
2018-06-29T06:09:24.448Z,914.66
2018-06-29T06:10:24.422Z,914.63
2018-06-29T06:11:24.381Z,914.64
2018-06-29T06:12:24.346Z,914.63
2018-06-29T06:13:24.455Z,914.64
2018-06-29T06:14:24.282Z,914.65
2018-06-29T06:15:24.261Z,914.71
2018-06-29T06:16:24.223Z,914.71
2018-06-29T06:17:24.183Z,914.70
2018-06-29T06:18:24.150Z,914.74
2018-06-29T06:19:24.118Z,914.69
2018-06-29T06:20:24.083Z,914.71
2018-06-29T06:21:24.078Z,914.73
2018-06-29T06:22:24.017Z,914.74
2018-06-29T06:23:23.992Z,914.72
2018-06-29T06:24:24.056Z,914.72
2018-06-29T06:25:23.922Z,914.74
2018-06-29T06:26:23.885Z,914.77
2018-06-29T06:27:23.855Z,914.78
2018-06-29T06:28:23.823Z,914.78
2018-06-29T06:29:23.785Z,914.77
2018-06-29T06:30:23.956Z,914.80
2018-06-29T06:31:23.720Z,914.84
2018-06-29T06:32:23.687Z,914.84
2018-06-29T06:33:23.680Z,914.83
2018-06-29T06:34:23.619Z,914.85
2018-06-29T06:35:23.585Z,914.84
2018-06-29T06:36:23.554Z,914.90
2018-06-29T06:37:23.522Z,914.90
2018-06-29T06:38:23.490Z,914.86
2018-06-29T06:39:23.455Z,914.85
2018-06-29T06:40:23.466Z,914.84
2018-06-29T06:41:23.395Z,914.85
2018-06-29T06:42:23.363Z,914.84
2018-06-29T06:43:23.335Z,914.83
2018-06-29T06:44:23.295Z,914.85
2018-06-29T06:45:23.262Z,914.84
2018-06-29T06:46:23.223Z,914.87
2018-06-29T06:47:23.192Z,914.85
2018-06-29T06:48:23.155Z,914.86
2018-06-29T06:49:23.124Z,914.85
2018-06-29T06:50:23.093Z,914.86
2018-06-29T06:51:23.062Z,914.85
2018-06-29T06:52:23.024Z,914.85
2018-06-29T06:53:22.990Z,914.81
2018-06-29T06:54:22.957Z,914.84
2018-06-29T06:55:22.929Z,914.83
2018-06-29T06:56:23.099Z,914.80
2018-06-29T06:57:22.882Z,914.84
2018-06-29T06:58:22.827Z,914.84
2018-06-29T06:59:22.842Z,914.84
2018-06-29T07:00:22.760Z,914.83
2018-06-29T07:01:22.729Z,914.85
2018-06-29T07:02:22.839Z,914.85
2018-06-29T07:03:22.656Z,914.81
2018-06-29T07:04:22.630Z,914.89
2018-06-29T07:05:22.590Z,914.85
2018-06-29T07:06:22.564Z,914.86
2018-06-29T07:07:22.523Z,914.80
2018-06-29T07:08:22.494Z,914.86
2018-06-29T07:09:22.462Z,914.88
2018-06-29T07:10:22.422Z,914.87
2018-06-29T07:11:22.405Z,914.86
2018-06-29T07:12:22.418Z,914.90
2018-06-29T07:13:22.326Z,914.93
2018-06-29T07:14:22.292Z,914.92
2018-06-29T07:15:22.263Z,914.91
2018-06-29T07:16:22.230Z,914.91
2018-06-29T07:17:22.193Z,914.89
2018-06-29T07:18:22.238Z,914.87
2018-06-29T07:19:22.140Z,914.89
2018-06-29T07:20:22.089Z,914.89
2018-06-29T07:21:22.143Z,914.92
2018-06-29T07:22:22.025Z,914.87
2018-06-29T07:23:21.991Z,914.87
2018-06-29T07:24:21.960Z,914.83
2018-06-29T07:25:21.923Z,914.87
2018-06-29T07:26:21.906Z,914.84
2018-06-29T07:27:21.862Z,914.84
2018-06-29T07:28:21.829Z,914.81
2018-06-29T07:29:21.804Z,914.79
2018-06-29T07:30:21.756Z,914.78
2018-06-29T07:31:21.726Z,914.80
2018-06-29T07:32:21.695Z,914.77
2018-06-29T07:33:21.674Z,914.77
2018-06-29T07:34:21.634Z,914.79
2018-06-29T07:35:21.593Z,914.84
2018-06-29T07:36:21.589Z,914.81
2018-06-29T07:37:21.525Z,914.77
2018-06-29T07:38:21.488Z,914.76
2018-06-29T07:39:21.666Z,914.80
2018-06-29T07:40:21.422Z,914.80
2018-06-29T07:41:21.396Z,914.79
2018-06-29T07:42:21.355Z,914.76
2018-06-29T07:43:21.339Z,914.80
2018-06-29T07:44:21.288Z,914.84
2018-06-29T07:45:21.255Z,914.84
2018-06-29T07:46:21.227Z,914.85
2018-06-29T07:47:21.219Z,914.82
2018-06-29T07:48:21.164Z,914.82
2018-06-29T07:49:21.126Z,914.87
2018-06-29T07:50:21.094Z,914.83
2018-06-29T07:51:21.056Z,914.90
2018-06-29T07:52:21.021Z,914.88
2018-06-29T07:53:20.987Z,914.90
2018-06-29T07:54:20.987Z,914.92
2018-06-29T07:55:21.033Z,914.90
2018-06-29T07:56:20.989Z,914.94
2018-06-29T07:57:20.853Z,914.92
2018-06-29T07:58:20.950Z,914.97
2018-06-29T07:59:20.793Z,914.99
2018-06-29T08:00:20.756Z,915.01
2018-06-29T08:01:20.720Z,915.02
2018-06-29T08:02:20.687Z,915.00
2018-06-29T08:03:20.661Z,914.92
2018-06-29T08:04:20.626Z,914.92
2018-06-29T08:05:20.594Z,914.97
2018-06-29T08:06:20.770Z,914.97
2018-06-29T08:07:20.517Z,915.01
2018-06-29T08:08:20.488Z,915.01
2018-06-29T08:09:20.453Z,915.08
2018-06-29T08:10:20.419Z,915.05
2018-06-29T08:11:20.438Z,915.06
2018-06-29T08:12:20.355Z,915.08
2018-06-29T08:13:20.317Z,915.05
2018-06-29T08:14:20.287Z,915.13
2018-06-29T08:15:20.254Z,915.14
2018-06-29T08:16:20.216Z,915.14
2018-06-29T08:17:20.185Z,915.10
2018-06-29T08:18:20.152Z,915.12
2018-06-29T08:19:20.117Z,915.14
2018-06-29T08:20:20.082Z,915.16
2018-06-29T08:21:20.050Z,915.11
2018-06-29T08:22:20.058Z,915.13
2018-06-29T08:23:19.994Z,915.15
2018-06-29T08:24:19.996Z,915.16
2018-06-29T08:25:19.921Z,915.16
2018-06-29T08:26:19.884Z,915.15
2018-06-29T08:27:19.848Z,915.16
2018-06-29T08:28:19.816Z,915.22
2018-06-29T08:29:19.782Z,915.22
2018-06-29T08:30:19.746Z,915.22
2018-06-29T08:31:19.720Z,915.24
2018-06-29T08:32:19.683Z,915.24
2018-06-29T08:33:19.659Z,915.23
2018-06-29T08:34:19.617Z,915.21
2018-06-29T08:35:19.580Z,915.22
2018-06-29T08:36:19.548Z,915.20
2018-06-29T08:37:19.517Z,915.20
2018-06-29T08:38:19.635Z,915.20
2018-06-29T08:39:19.450Z,915.24
2018-06-29T08:40:19.412Z,915.19
2018-06-29T08:41:19.378Z,915.18
2018-06-29T08:42:19.350Z,915.19
2018-06-29T08:43:19.319Z,915.21
2018-06-29T08:44:19.325Z,915.24
2018-06-29T08:45:19.246Z,915.25
2018-06-29T08:46:19.213Z,915.28
2018-06-29T08:47:19.184Z,915.31
2018-06-29T08:48:19.140Z,915.31
2018-06-29T08:49:19.109Z,915.30
2018-06-29T08:50:19.084Z,915.32
2018-06-29T08:51:19.050Z,915.30
2018-06-29T08:52:19.087Z,915.31
2018-06-29T08:53:18.984Z,915.32
2018-06-29T08:54:19.042Z,915.30
2018-06-29T08:55:18.927Z,915.28
2018-06-29T08:56:18.873Z,915.29
2018-06-29T08:57:18.838Z,915.28
2018-06-29T08:58:18.809Z,915.32
2018-06-29T08:59:18.773Z,915.31
2018-06-29T09:00:18.741Z,915.33
2018-06-29T09:01:18.705Z,915.31
2018-06-29T09:02:18.679Z,915.34
2018-06-29T09:03:18.638Z,915.34
2018-06-29T09:04:18.606Z,915.36
2018-06-29T09:05:18.870Z,915.35
2018-06-29T09:06:18.541Z,915.34
2018-06-29T09:07:18.500Z,915.35
2018-06-29T09:08:18.492Z,915.33
2018-06-29T09:09:18.446Z,915.40
2018-06-29T09:10:18.408Z,915.37
2018-06-29T09:11:18.370Z,915.37
2018-06-29T09:12:18.333Z,915.39
2018-06-29T09:13:18.298Z,915.40
2018-06-29T09:14:18.277Z,915.39
2018-06-29T09:15:18.235Z,915.41
2018-06-29T09:16:18.202Z,915.45
2018-06-29T09:17:18.167Z,915.40
2018-06-29T09:18:18.219Z,915.44
2018-06-29T09:19:18.103Z,915.44
2018-06-29T09:20:18.077Z,915.44
2018-06-29T09:21:18.331Z,915.49
2018-06-29T09:22:18.007Z,915.46
2018-06-29T09:23:17.965Z,915.48
2018-06-29T09:24:17.984Z,915.50
2018-06-29T09:25:17.902Z,915.51
2018-06-29T09:26:17.861Z,915.50
2018-06-29T09:27:17.824Z,915.51
2018-06-29T09:28:17.798Z,915.51
2018-06-29T09:29:17.760Z,915.57
2018-06-29T09:30:17.729Z,915.56
2018-06-29T09:31:17.693Z,915.58
2018-06-29T09:32:17.660Z,915.55
2018-06-29T09:33:17.622Z,915.54
2018-06-29T09:34:17.592Z,915.58
2018-06-29T09:35:17.560Z,915.56
2018-06-29T09:36:17.589Z,915.58
2018-06-29T09:37:17.497Z,915.56
2018-06-29T09:38:17.463Z,915.60
2018-06-29T09:39:17.419Z,915.64
2018-06-29T09:40:17.386Z,915.64
2018-06-29T09:41:17.354Z,915.65
2018-06-29T09:42:17.327Z,915.68
2018-06-29T09:43:17.307Z,915.70
2018-06-29T09:44:17.257Z,915.80
2018-06-29T09:45:17.218Z,915.79
2018-06-29T09:46:17.192Z,915.78
2018-06-29T09:47:17.152Z,915.80
2018-06-29T09:48:17.115Z,915.84
2018-06-29T09:49:17.080Z,915.85
2018-06-29T09:50:17.049Z,915.90
2018-06-29T09:51:17.013Z,915.92
2018-06-29T09:52:16.981Z,915.94
2018-06-29T09:53:16.944Z,915.98
2018-06-29T09:54:16.909Z,916.05
2018-06-29T09:55:16.883Z,916.07
2018-06-29T09:56:16.844Z,916.11
2018-06-29T09:57:16.811Z,916.10
2018-06-29T09:58:16.781Z,916.10
2018-06-29T09:59:16.747Z,916.12
2018-06-29T10:00:16.708Z,916.10
2018-06-29T10:01:16.724Z,916.12
2018-06-29T10:02:16.642Z,916.08
2018-06-29T10:03:16.615Z,916.11
2018-06-29T10:04:16.577Z,916.04
2018-06-29T10:05:16.544Z,916.05
2018-06-29T10:06:16.516Z,916.03
2018-06-29T10:07:16.471Z,916.06
2018-06-29T10:08:16.440Z,916.03
2018-06-29T10:09:16.405Z,916.05
2018-06-29T10:10:16.390Z,916.11
2018-06-29T10:11:16.340Z,916.13
2018-06-29T10:12:16.303Z,916.13
2018-06-29T10:13:16.266Z,916.12
2018-06-29T10:14:16.348Z,916.10
2018-06-29T10:15:16.210Z,916.08
2018-06-29T10:16:16.166Z,916.06
2018-06-29T10:17:16.136Z,916.04
2018-06-29T10:18:16.201Z,916.01
2018-06-29T10:19:16.068Z,915.99
2018-06-29T10:20:16.099Z,916.04
2018-06-29T10:21:15.999Z,916.05
2018-06-29T10:22:16.054Z,916.10
2018-06-29T10:23:15.935Z,916.10
2018-06-29T10:24:16.318Z,916.11
2018-06-29T10:25:15.937Z,916.15
2018-06-29T10:26:15.835Z,916.15
2018-06-29T10:27:15.801Z,916.18
2018-06-29T10:28:15.873Z,916.15
2018-06-29T10:29:15.740Z,916.16
2018-06-29T10:30:16.000Z,916.21
2018-06-29T10:31:15.663Z,916.19
2018-06-29T10:32:15.632Z,916.21
2018-06-29T10:33:15.601Z,916.24
2018-06-29T10:34:15.561Z,916.18
2018-06-29T10:35:15.574Z,916.19
2018-06-29T10:36:15.500Z,916.20
2018-06-29T10:37:15.463Z,916.21
2018-06-29T10:38:15.439Z,916.21
2018-06-29T10:39:15.398Z,916.19
2018-06-29T10:40:15.363Z,916.24
2018-06-29T10:41:15.333Z,916.22
2018-06-29T10:42:15.303Z,916.27
2018-06-29T10:43:15.270Z,916.23
2018-06-29T10:44:15.231Z,916.25
2018-06-29T10:45:15.202Z,916.32
2018-06-29T10:46:15.167Z,916.31
2018-06-29T10:47:15.143Z,916.32
2018-06-29T10:48:15.101Z,916.35
2018-06-29T10:49:15.076Z,916.32
2018-06-29T10:50:15.045Z,916.33
2018-06-29T10:51:15.151Z,916.32
2018-06-29T10:52:14.973Z,916.29
2018-06-29T10:53:14.936Z,916.35
2018-06-29T10:54:14.904Z,916.37
2018-06-29T10:55:14.873Z,916.36
2018-06-29T10:56:14.838Z,916.44
2018-06-29T10:57:14.810Z,916.44
2018-06-29T10:58:14.773Z,916.41
2018-06-29T10:59:14.741Z,916.45
2018-06-29T11:00:14.704Z,916.46
2018-06-29T11:01:14.674Z,916.50
2018-06-29T11:02:14.666Z,916.52
2018-06-29T11:03:14.618Z,916.51
2018-06-29T11:04:14.578Z,916.51
2018-06-29T11:05:14.555Z,916.56
2018-06-29T11:06:14.513Z,916.59
2018-06-29T11:07:14.686Z,916.59
2018-06-29T11:08:14.448Z,916.59
2018-06-29T11:09:14.414Z,916.54
2018-06-29T11:10:14.381Z,916.58
2018-06-29T11:11:14.353Z,916.57
2018-06-29T11:12:14.321Z,916.58
2018-06-29T11:13:14.291Z,916.60
2018-06-29T11:14:14.259Z,916.66
2018-06-29T11:15:14.220Z,916.68
2018-06-29T11:16:14.196Z,916.71
2018-06-29T11:17:14.156Z,916.69
2018-06-29T11:18:14.275Z,916.76
2018-06-29T11:19:14.092Z,916.76
2018-06-29T11:20:14.068Z,916.79
2018-06-29T11:21:14.033Z,916.82
2018-06-29T11:22:14.001Z,916.77
2018-06-29T11:23:13.964Z,916.76
2018-06-29T11:24:14.253Z,916.77
2018-06-29T11:25:13.903Z,916.79
2018-06-29T11:26:13.872Z,916.81
2018-06-29T11:27:13.843Z,916.81
2018-06-29T11:28:13.812Z,916.86
2018-06-29T11:29:13.778Z,916.82
2018-06-29T11:30:13.910Z,916.84
2018-06-29T11:31:13.714Z,916.86
2018-06-29T11:32:13.681Z,916.90
2018-06-29T11:33:13.650Z,916.91
2018-06-29T11:34:13.621Z,916.90
2018-06-29T11:35:13.593Z,916.91
2018-06-29T11:36:13.555Z,916.91
2018-06-29T11:37:13.536Z,916.92
2018-06-29T11:38:13.506Z,916.96
2018-06-29T11:39:13.477Z,916.94
2018-06-29T11:40:13.433Z,916.97
2018-06-29T11:41:13.501Z,917.00
2018-06-29T11:42:13.371Z,917.31
2018-06-29T11:43:13.335Z,917.27
2018-06-29T11:44:13.334Z,917.30
2018-06-29T11:45:13.277Z,917.43
2018-06-29T11:46:13.241Z,917.50
2018-06-29T11:47:13.213Z,917.51
2018-06-29T11:48:13.179Z,917.56
2018-06-29T11:49:13.149Z,917.60
2018-06-29T11:50:13.117Z,917.59
2018-06-29T11:51:13.089Z,917.57
2018-06-29T11:52:13.162Z,917.60
2018-06-29T11:53:13.028Z,917.65
2018-06-29T11:54:13.005Z,917.67
2018-06-29T11:55:12.970Z,917.72
2018-06-29T11:56:12.944Z,917.77
2018-06-29T11:57:12.919Z,917.76
2018-06-29T11:58:13.241Z,917.78
2018-06-29T11:59:12.854Z,917.82
2018-06-29T12:00:12.829Z,917.80
2018-06-29T12:01:12.802Z,917.82
2018-06-29T12:02:12.769Z,917.83
2018-06-29T12:03:12.752Z,917.80
2018-06-29T12:04:13.019Z,917.83
2018-06-29T12:05:12.696Z,917.85
2018-06-29T12:06:12.685Z,917.82
2018-06-29T12:07:12.683Z,917.86
2018-06-29T12:08:12.610Z,917.85
2018-06-29T12:09:12.581Z,917.87
2018-06-29T12:10:12.557Z,917.80
2018-06-29T12:11:12.529Z,917.82
2018-06-29T12:12:12.504Z,917.89
2018-06-29T12:13:12.491Z,917.89
2018-06-29T12:14:12.445Z,917.89
2018-06-29T12:15:12.469Z,917.84
2018-06-29T12:16:12.393Z,917.57
2018-06-29T12:17:12.414Z,917.57
2018-06-29T12:18:12.342Z,917.83
2018-06-29T12:19:12.331Z,917.55
2018-06-29T12:20:12.308Z,917.47
2018-06-29T12:21:12.333Z,917.57
2018-06-29T12:22:12.242Z,917.59
2018-06-29T12:23:12.258Z,917.79
2018-06-29T12:24:12.250Z,917.81
2018-06-29T12:25:12.190Z,917.60
2018-06-29T12:26:12.419Z,917.69
2018-06-29T12:27:12.166Z,917.47
2018-06-29T12:28:12.116Z,917.67